sensor_id;sensor_type;location;lat;lon;timestamp;temperature;humidity
41310;DHT22;27057;51.438;-0.010;2023-06-24T00:02:26;19.80;99.90
41310;DHT22;27057;51.438;-0.010;2023-06-24T00:04:53;19.80;99.90
41310;DHT22;27057;51.438;-0.010;2023-06-24T00:07:21;19.70;99.90
41310;DHT22;27057;51.438;-0.010;2023-06-24T00:09:50;19.70;99.90
41310;DHT22;27057;51.438;-0.010;2023-06-24T00:12:18;19.70;99.90
41310;DHT22;27057;51.438;-0.010;2023-06-24T00:14:50;19.70;99.90
41310;DHT22;27057;51.438;-0.010;2023-06-24T00:17:18;19.70;99.90
41310;DHT22;27057;51.438;-0.010;2023-06-24T00:19:45;19.70;99.90
41310;DHT22;27057;51.438;-0.010;2023-06-24T00:22:13;19.70;99.90
41310;DHT22;27057;51.438;-0.010;2023-06-24T00:24:42;19.70;99.90
41310;DHT22;27057;51.438;-0.010;2023-06-24T00:27:10;19.60;99.90
41310;DHT22;27057;51.438;-0.010;2023-06-24T00:29:38;19.60;99.90
41310;DHT22;27057;51.438;-0.010;2023-06-24T00:32:06;19.60;99.90
41310;DHT22;27057;51.438;-0.010;2023-06-24T00:34:34;19.60;99.90
41310;DHT22;27057;51.438;-0.010;2023-06-24T00:37:01;19.60;99.90
41310;DHT22;27057;51.438;-0.010;2023-06-24T00:39:30;19.60;99.90
41310;DHT22;27057;51.438;-0.010;2023-06-24T00:41:59;19.60;99.90
41310;DHT22;27057;51.438;-0.010;2023-06-24T00:44:27;19.50;99.90
41310;DHT22;27057;51.438;-0.010;2023-06-24T00:46:54;19.50;99.90
41310;DHT22;27057;51.438;-0.010;2023-06-24T00:49:22;19.50;99.90
41310;DHT22;27057;51.438;-0.010;2023-06-24T00:51:50;19.50;99.90
41310;DHT22;27057;51.438;-0.010;2023-06-24T00:54:18;19.40;99.90
41310;DHT22;27057;51.438;-0.010;2023-06-24T00:56:46;19.40;99.90
41310;DHT22;27057;51.438;-0.010;2023-06-24T00:59:15;19.40;99.90
41310;DHT22;27057;51.438;-0.010;2023-06-24T01:01:45;19.40;99.90
41310;DHT22;27057;51.438;-0.010;2023-06-24T01:04:13;19.40;99.90
41310;DHT22;27057;51.438;-0.010;2023-06-24T01:06:41;19.40;99.90
41310;DHT22;27057;51.438;-0.010;2023-06-24T01:09:12;19.30;99.90
41310;DHT22;27057;51.438;-0.010;2023-06-24T01:11:40;19.30;99.90
41310;DHT22;27057;51.438;-0.010;2023-06-24T01:16:54;19.20;99.90
41310;DHT22;27057;51.438;-0.010;2023-06-24T01:30:22;19.00;99.90
41310;DHT22;27057;51.438;-0.010;2023-06-24T01:32:58;19.00;99.90
41310;DHT22;27057;51.438;-0.010;2023-06-24T01:35:30;19.00;99.90
41310;DHT22;27057;51.438;-0.010;2023-06-24T01:38:03;19.00;99.90
41310;DHT22;27057;51.438;-0.010;2023-06-24T01:40:38;19.00;99.90
41310;DHT22;27057;51.438;-0.010;2023-06-24T01:43:10;18.90;99.90
41310;DHT22;27057;51.438;-0.010;2023-06-24T01:45:42;18.90;99.90
41310;DHT22;27057;51.438;-0.010;2023-06-24T01:48:19;18.90;99.90
41310;DHT22;27057;51.438;-0.010;2023-06-24T01:51:12;18.80;99.90
41310;DHT22;27057;51.438;-0.010;2023-06-24T01:53:44;18.80;99.90
41310;DHT22;27057;51.438;-0.010;2023-06-24T01:56:16;18.90;99.90
41310;DHT22;27057;51.438;-0.010;2023-06-24T01:58:45;18.70;99.90
41310;DHT22;27057;51.438;-0.010;2023-06-24T02:01:14;18.70;99.90
41310;DHT22;27057;51.438;-0.010;2023-06-24T02:03:42;18.80;99.90
41310;DHT22;27057;51.438;-0.010;2023-06-24T02:06:11;18.80;99.90
41310;DHT22;27057;51.438;-0.010;2023-06-24T02:08:40;18.70;99.90
41310;DHT22;27057;51.438;-0.010;2023-06-24T02:11:09;18.70;99.90
41310;DHT22;27057;51.438;-0.010;2023-06-24T02:13:39;18.70;99.90
41310;DHT22;27057;51.438;-0.010;2023-06-24T02:16:13;18.60;99.90
41310;DHT22;27057;51.438;-0.010;2023-06-24T02:18:41;18.90;99.90
41310;DHT22;27057;51.438;-0.010;2023-06-24T02:21:10;18.50;99.90
41310;DHT22;27057;51.438;-0.010;2023-06-24T02:23:39;18.50;99.90
41310;DHT22;27057;51.438;-0.010;2023-06-24T02:26:07;18.60;99.90
41310;DHT22;27057;51.438;-0.010;2023-06-24T02:28:34;18.50;99.90
41310;DHT22;27057;51.438;-0.010;2023-06-24T02:31:03;18.60;99.90
41310;DHT22;27057;51.438;-0.010;2023-06-24T02:33:31;18.60;99.90
41310;DHT22;27057;51.438;-0.010;2023-06-24T02:35:59;18.40;99.90
41310;DHT22;27057;51.438;-0.010;2023-06-24T02:38:26;18.30;99.90
41310;DHT22;27057;51.438;-0.010;2023-06-24T02:40:55;18.50;99.90
41310;DHT22;27057;51.438;-0.010;2023-06-24T02:43:24;18.30;99.90
41310;DHT22;27057;51.438;-0.010;2023-06-24T02:45:52;18.40;99.90
41310;DHT22;27057;51.438;-0.010;2023-06-24T02:48:21;18.20;99.90
41310;DHT22;27057;51.438;-0.010;2023-06-24T02:50:48;18.20;99.90
41310;DHT22;27057;51.438;-0.010;2023-06-24T02:53:16;18.20;99.90
41310;DHT22;27057;51.438;-0.010;2023-06-24T02:55:49;18.10;99.90
41310;DHT22;27057;51.438;-0.010;2023-06-24T02:58:17;18.10;99.90
41310;DHT22;27057;51.438;-0.010;2023-06-24T03:01:00;18.10;99.90
41310;DHT22;27057;51.438;-0.010;2023-06-24T03:03:45;18.10;99.90
41310;DHT22;27057;51.438;-0.010;2023-06-24T03:06:18;18.00;99.90
41310;DHT22;27057;51.438;-0.010;2023-06-24T03:08:45;18.10;99.90
41310;DHT22;27057;51.438;-0.010;2023-06-24T03:11:15;17.90;99.90
41310;DHT22;27057;51.438;-0.010;2023-06-24T03:13:43;17.90;99.90
41310;DHT22;27057;51.438;-0.010;2023-06-24T03:16:18;17.90;99.90
41310;DHT22;27057;51.438;-0.010;2023-06-24T03:19:06;17.90;99.90
41310;DHT22;27057;51.438;-0.010;2023-06-24T03:21:34;18.10;99.90
41310;DHT22;27057;51.438;-0.010;2023-06-24T03:24:07;17.90;99.90
41310;DHT22;27057;51.438;-0.010;2023-06-24T03:26:38;19.10;99.90
41310;DHT22;27057;51.438;-0.010;2023-06-24T03:29:09;17.80;99.90
41310;DHT22;27057;51.438;-0.010;2023-06-24T03:31:41;17.80;99.90
41310;DHT22;27057;51.438;-0.010;2023-06-24T03:34:13;17.80;99.90
41310;DHT22;27057;51.438;-0.010;2023-06-24T03:36:41;17.80;99.90
41310;DHT22;27057;51.438;-0.010;2023-06-24T03:39:08;18.40;99.90
41310;DHT22;27057;51.438;-0.010;2023-06-24T03:41:36;17.70;99.90
41310;DHT22;27057;51.438;-0.010;2023-06-24T03:44:03;17.70;99.90
41310;DHT22;27057;51.438;-0.010;2023-06-24T03:46:32;17.80;99.90
41310;DHT22;27057;51.438;-0.010;2023-06-24T03:49:00;17.70;99.90
41310;DHT22;27057;51.438;-0.010;2023-06-24T03:51:30;17.70;99.90
41310;DHT22;27057;51.438;-0.010;2023-06-24T03:53:58;17.70;99.90
41310;DHT22;27057;51.438;-0.010;2023-06-24T03:56:27;17.80;99.90
41310;DHT22;27057;51.438;-0.010;2023-06-24T03:58:54;18.20;99.90
41310;DHT22;27057;51.438;-0.010;2023-06-24T04:01:23;17.80;99.90
41310;DHT22;27057;51.438;-0.010;2023-06-24T04:03:51;17.90;99.90
41310;DHT22;27057;51.438;-0.010;2023-06-24T04:06:18;17.70;99.90
41310;DHT22;27057;51.438;-0.010;2023-06-24T04:08:46;17.70;99.90
41310;DHT22;27057;51.438;-0.010;2023-06-24T04:11:16;17.60;99.90
41310;DHT22;27057;51.438;-0.010;2023-06-24T04:13:45;17.80;99.90
41310;DHT22;27057;51.438;-0.010;2023-06-24T04:16:13;17.60;99.90
41310;DHT22;27057;51.438;-0.010;2023-06-24T04:18:40;17.50;99.90
41310;DHT22;27057;51.438;-0.010;2023-06-24T04:21:08;17.60;99.90
41310;DHT22;27057;51.438;-0.010;2023-06-24T04:23:35;17.60;99.90
41310;DHT22;27057;51.438;-0.010;2023-06-24T04:26:03;17.60;99.90
41310;DHT22;27057;51.438;-0.010;2023-06-24T04:28:30;17.60;99.90
41310;DHT22;27057;51.438;-0.010;2023-06-24T04:30:58;17.60;99.90
41310;DHT22;27057;51.438;-0.010;2023-06-24T04:33:26;18.30;99.90
41310;DHT22;27057;51.438;-0.010;2023-06-24T04:35:53;17.60;99.90
41310;DHT22;27057;51.438;-0.010;2023-06-24T04:38:24;17.70;99.90
41310;DHT22;27057;51.438;-0.010;2023-06-24T04:40:52;17.70;99.90
41310;DHT22;27057;51.438;-0.010;2023-06-24T04:43:20;17.70;99.90
41310;DHT22;27057;51.438;-0.010;2023-06-24T04:45:47;17.70;99.90
41310;DHT22;27057;51.438;-0.010;2023-06-24T04:48:14;17.70;99.90
41310;DHT22;27057;51.438;-0.010;2023-06-24T04:50:42;17.70;99.90
41310;DHT22;27057;51.438;-0.010;2023-06-24T04:55:37;17.70;99.90
41310;DHT22;27057;51.438;-0.010;2023-06-24T04:58:05;17.70;99.90
41310;DHT22;27057;51.438;-0.010;2023-06-24T05:00:32;17.50;99.90
41310;DHT22;27057;51.438;-0.010;2023-06-24T05:03:00;17.40;99.90
41310;DHT22;27057;51.438;-0.010;2023-06-24T05:05:27;17.70;99.90
41310;DHT22;27057;51.438;-0.010;2023-06-24T05:07:55;18.00;99.90
41310;DHT22;27057;51.438;-0.010;2023-06-24T05:10:22;17.80;99.90
41310;DHT22;27057;51.438;-0.010;2023-06-24T05:12:50;17.90;99.90
41310;DHT22;27057;51.438;-0.010;2023-06-24T05:15:17;17.90;99.90
41310;DHT22;27057;51.438;-0.010;2023-06-24T05:17:44;17.90;99.90
41310;DHT22;27057;51.438;-0.010;2023-06-24T05:20:12;18.00;99.90
41310;DHT22;27057;51.438;-0.010;2023-06-24T05:22:40;18.00;99.90
41310;DHT22;27057;51.438;-0.010;2023-06-24T05:25:07;18.10;99.90
41310;DHT22;27057;51.438;-0.010;2023-06-24T05:30:02;18.10;99.90
41310;DHT22;27057;51.438;-0.010;2023-06-24T05:32:30;18.20;99.90
41310;DHT22;27057;51.438;-0.010;2023-06-24T05:34:57;18.20;99.90
41310;DHT22;27057;51.438;-0.010;2023-06-24T05:37:25;18.10;99.90
41310;DHT22;27057;51.438;-0.010;2023-06-24T05:39:52;18.20;99.90
41310;DHT22;27057;51.438;-0.010;2023-06-24T05:42:20;18.30;99.90
41310;DHT22;27057;51.438;-0.010;2023-06-24T05:44:47;18.30;99.90
41310;DHT22;27057;51.438;-0.010;2023-06-24T05:47:14;18.30;99.90
41310;DHT22;27057;51.438;-0.010;2023-06-24T05:49:42;18.30;99.90
41310;DHT22;27057;51.438;-0.010;2023-06-24T05:52:09;18.30;99.90
41310;DHT22;27057;51.438;-0.010;2023-06-24T05:54:36;18.40;99.90
41310;DHT22;27057;51.438;-0.010;2023-06-24T05:57:04;18.50;99.90
41310;DHT22;27057;51.438;-0.010;2023-06-24T05:59:34;18.50;99.90
41310;DHT22;27057;51.438;-0.010;2023-06-24T06:02:01;18.70;99.90
41310;DHT22;27057;51.438;-0.010;2023-06-24T06:04:29;18.60;99.90
41310;DHT22;27057;51.438;-0.010;2023-06-24T06:09:24;18.70;99.90
41310;DHT22;27057;51.438;-0.010;2023-06-24T06:11:51;18.80;99.90
41310;DHT22;27057;51.438;-0.010;2023-06-24T06:14:19;18.90;99.90
41310;DHT22;27057;51.438;-0.010;2023-06-24T06:16:46;19.00;99.90
41310;DHT22;27057;51.438;-0.010;2023-06-24T06:19:13;19.20;99.90
41310;DHT22;27057;51.438;-0.010;2023-06-24T06:21:41;19.20;99.90
41310;DHT22;27057;51.438;-0.010;2023-06-24T06:24:08;19.30;99.90
41310;DHT22;27057;51.438;-0.010;2023-06-24T06:26:43;19.30;99.90
41310;DHT22;27057;51.438;-0.010;2023-06-24T06:29:12;19.50;99.90
41310;DHT22;27057;51.438;-0.010;2023-06-24T06:31:39;19.60;99.90
41310;DHT22;27057;51.438;-0.010;2023-06-24T06:34:07;19.80;99.90
41310;DHT22;27057;51.438;-0.010;2023-06-24T06:36:35;19.80;99.90
41310;DHT22;27057;51.438;-0.010;2023-06-24T06:39:03;20.30;99.90
41310;DHT22;27057;51.438;-0.010;2023-06-24T06:41:30;20.10;99.90
41310;DHT22;27057;51.438;-0.010;2023-06-24T06:43:58;20.30;99.90
41310;DHT22;27057;51.438;-0.010;2023-06-24T06:46:26;20.40;99.90
41310;DHT22;27057;51.438;-0.010;2023-06-24T06:48:53;20.70;99.90
41310;DHT22;27057;51.438;-0.010;2023-06-24T06:51:21;20.80;99.90
41310;DHT22;27057;51.438;-0.010;2023-06-24T06:53:48;20.90;99.90
41310;DHT22;27057;51.438;-0.010;2023-06-24T06:56:22;21.10;99.90
41310;DHT22;27057;51.438;-0.010;2023-06-24T06:58:50;21.20;99.90
41310;DHT22;27057;51.438;-0.010;2023-06-24T07:01:18;22.10;99.90
41310;DHT22;27057;51.438;-0.010;2023-06-24T07:03:46;21.10;99.90
41310;DHT22;27057;51.438;-0.010;2023-06-24T07:06:13;21.00;99.90
41310;DHT22;27057;51.438;-0.010;2023-06-24T07:08:40;21.00;99.90
41310;DHT22;27057;51.438;-0.010;2023-06-24T07:11:08;21.00;99.90
41310;DHT22;27057;51.438;-0.010;2023-06-24T07:13:35;21.00;99.90
41310;DHT22;27057;51.438;-0.010;2023-06-24T07:16:03;20.90;99.90
41310;DHT22;27057;51.438;-0.010;2023-06-24T07:18:30;21.30;99.90
41310;DHT22;27057;51.438;-0.010;2023-06-24T07:20:59;21.00;99.90
41310;DHT22;27057;51.438;-0.010;2023-06-24T07:23:27;21.20;99.90
41310;DHT22;27057;51.438;-0.010;2023-06-24T07:25:54;21.00;99.90
41310;DHT22;27057;51.438;-0.010;2023-06-24T07:28:21;21.20;99.90
41310;DHT22;27057;51.438;-0.010;2023-06-24T07:30:49;21.20;99.90
41310;DHT22;27057;51.438;-0.010;2023-06-24T07:33:16;21.10;99.90
41310;DHT22;27057;51.438;-0.010;2023-06-24T07:35:44;21.20;99.90
41310;DHT22;27057;51.438;-0.010;2023-06-24T07:38:11;21.30;99.90
41310;DHT22;27057;51.438;-0.010;2023-06-24T07:40:39;21.40;99.90
41310;DHT22;27057;51.438;-0.010;2023-06-24T07:43:06;23.00;99.90
41310;DHT22;27057;51.438;-0.010;2023-06-24T07:45:34;21.60;99.90
41310;DHT22;27057;51.438;-0.010;2023-06-24T07:48:02;21.50;99.90
41310;DHT22;27057;51.438;-0.010;2023-06-24T07:50:29;21.30;99.90
41310;DHT22;27057;51.438;-0.010;2023-06-24T07:52:58;21.30;99.90
41310;DHT22;27057;51.438;-0.010;2023-06-24T07:55:25;21.40;99.90
41310;DHT22;27057;51.438;-0.010;2023-06-24T07:57:53;21.30;99.90
41310;DHT22;27057;51.438;-0.010;2023-06-24T08:00:20;21.40;99.90
41310;DHT22;27057;51.438;-0.010;2023-06-24T08:02:47;21.70;99.90
41310;DHT22;27057;51.438;-0.010;2023-06-24T08:05:15;21.60;99.90
41310;DHT22;27057;51.438;-0.010;2023-06-24T08:07:45;21.70;99.90
41310;DHT22;27057;51.438;-0.010;2023-06-24T08:10:13;21.70;99.90
41310;DHT22;27057;51.438;-0.010;2023-06-24T08:12:40;21.80;99.90
41310;DHT22;27057;51.438;-0.010;2023-06-24T08:15:08;21.90;99.90
41310;DHT22;27057;51.438;-0.010;2023-06-24T08:17:35;21.90;99.90
41310;DHT22;27057;51.438;-0.010;2023-06-24T08:20:03;22.00;99.90
41310;DHT22;27057;51.438;-0.010;2023-06-24T08:22:31;22.10;99.90
41310;DHT22;27057;51.438;-0.010;2023-06-24T08:24:58;22.20;99.90
41310;DHT22;27057;51.438;-0.010;2023-06-24T08:27:26;22.30;99.90
41310;DHT22;27057;51.438;-0.010;2023-06-24T08:29:53;22.40;99.90
41310;DHT22;27057;51.438;-0.010;2023-06-24T08:32:21;22.50;99.90
41310;DHT22;27057;51.438;-0.010;2023-06-24T08:34:48;22.70;99.90
41310;DHT22;27057;51.438;-0.010;2023-06-24T08:37:16;22.70;99.90
41310;DHT22;27057;51.438;-0.010;2023-06-24T08:39:43;22.70;99.90
41310;DHT22;27057;51.438;-0.010;2023-06-24T08:42:10;22.80;99.90
41310;DHT22;27057;51.438;-0.010;2023-06-24T08:44:37;22.90;99.90
41310;DHT22;27057;51.438;-0.010;2023-06-24T08:47:05;23.00;99.90
41310;DHT22;27057;51.438;-0.010;2023-06-24T08:49:34;23.00;99.90
41310;DHT22;27057;51.438;-0.010;2023-06-24T08:52:11;23.80;99.90
41310;DHT22;27057;51.438;-0.010;2023-06-24T08:54:41;23.20;99.90
41310;DHT22;27057;51.438;-0.010;2023-06-24T08:57:09;23.30;99.90
41310;DHT22;27057;51.438;-0.010;2023-06-24T08:59:42;23.40;99.90
41310;DHT22;27057;51.438;-0.010;2023-06-24T09:02:09;23.30;99.90
41310;DHT22;27057;51.438;-0.010;2023-06-24T09:04:38;23.30;99.90
41310;DHT22;27057;51.438;-0.010;2023-06-24T09:07:05;23.40;99.90
41310;DHT22;27057;51.438;-0.010;2023-06-24T09:09:42;23.50;99.90
41310;DHT22;27057;51.438;-0.010;2023-06-24T09:12:14;23.50;99.90
41310;DHT22;27057;51.438;-0.010;2023-06-24T09:14:48;23.50;99.90
41310;DHT22;27057;51.438;-0.010;2023-06-24T09:17:16;23.40;99.90
41310;DHT22;27057;51.438;-0.010;2023-06-24T09:19:44;23.50;99.90
41310;DHT22;27057;51.438;-0.010;2023-06-24T09:22:11;23.60;99.90
41310;DHT22;27057;51.438;-0.010;2023-06-24T09:24:44;23.80;99.90
41310;DHT22;27057;51.438;-0.010;2023-06-24T09:27:17;25.30;99.90
41310;DHT22;27057;51.438;-0.010;2023-06-24T09:29:47;24.00;99.90
41310;DHT22;27057;51.438;-0.010;2023-06-24T09:32:15;23.80;99.90
41310;DHT22;27057;51.438;-0.010;2023-06-24T09:34:43;24.20;99.90
41310;DHT22;27057;51.438;-0.010;2023-06-24T09:37:12;24.30;99.90
41310;DHT22;27057;51.438;-0.010;2023-06-24T09:39:48;24.30;99.90
41310;DHT22;27057;51.438;-0.010;2023-06-24T09:42:15;24.30;99.90
41310;DHT22;27057;51.438;-0.010;2023-06-24T09:44:53;24.30;99.90
41310;DHT22;27057;51.438;-0.010;2023-06-24T09:47:20;24.20;99.90
41310;DHT22;27057;51.438;-0.010;2023-06-24T09:49:53;24.40;99.90
41310;DHT22;27057;51.438;-0.010;2023-06-24T09:52:22;24.40;99.90
41310;DHT22;27057;51.438;-0.010;2023-06-24T09:54:51;24.50;99.90
41310;DHT22;27057;51.438;-0.010;2023-06-24T09:57:25;24.60;99.90
41310;DHT22;27057;51.438;-0.010;2023-06-24T09:59:55;24.70;99.90
41310;DHT22;27057;51.438;-0.010;2023-06-24T10:02:23;24.70;99.90
41310;DHT22;27057;51.438;-0.010;2023-06-24T10:04:52;24.70;99.90
41310;DHT22;27057;51.438;-0.010;2023-06-24T10:07:20;23.50;99.90
41310;DHT22;27057;51.438;-0.010;2023-06-24T10:09:48;24.70;99.90
41310;DHT22;27057;51.438;-0.010;2023-06-24T10:12:16;24.70;99.90
41310;DHT22;27057;51.438;-0.010;2023-06-24T10:14:43;24.90;99.90
41310;DHT22;27057;51.438;-0.010;2023-06-24T10:17:12;24.80;99.90
41310;DHT22;27057;51.438;-0.010;2023-06-24T10:19:40;26.20;99.90
41310;DHT22;27057;51.438;-0.010;2023-06-24T10:22:09;24.90;99.90
41310;DHT22;27057;51.438;-0.010;2023-06-24T10:24:39;25.50;99.90
41310;DHT22;27057;51.438;-0.010;2023-06-24T10:27:21;25.10;99.90
41310;DHT22;27057;51.438;-0.010;2023-06-24T10:29:51;25.10;99.90
41310;DHT22;27057;51.438;-0.010;2023-06-24T10:32:19;25.80;99.90
41310;DHT22;27057;51.438;-0.010;2023-06-24T10:34:56;25.20;99.90
41310;DHT22;27057;51.438;-0.010;2023-06-24T10:37:26;25.50;99.90
41310;DHT22;27057;51.438;-0.010;2023-06-24T10:39:57;25.70;99.90
41310;DHT22;27057;51.438;-0.010;2023-06-24T10:42:26;25.90;99.90
41310;DHT22;27057;51.438;-0.010;2023-06-24T10:44:56;26.20;99.90
41310;DHT22;27057;51.438;-0.010;2023-06-24T10:47:25;26.30;99.90
41310;DHT22;27057;51.438;-0.010;2023-06-24T10:49:52;26.30;99.90
41310;DHT22;27057;51.438;-0.010;2023-06-24T10:52:22;26.20;99.90
41310;DHT22;27057;51.438;-0.010;2023-06-24T10:54:51;25.80;99.90
41310;DHT22;27057;51.438;-0.010;2023-06-24T10:57:27;26.60;99.90
41310;DHT22;27057;51.438;-0.010;2023-06-24T10:59:56;26.70;99.90
41310;DHT22;27057;51.438;-0.010;2023-06-24T11:02:26;27.00;99.90
41310;DHT22;27057;51.438;-0.010;2023-06-24T11:04:56;26.80;99.90
41310;DHT22;27057;51.438;-0.010;2023-06-24T11:07:25;27.20;99.90
41310;DHT22;27057;51.438;-0.010;2023-06-24T11:09:54;27.00;99.90
41310;DHT22;27057;51.438;-0.010;2023-06-24T11:12:36;27.00;99.90
41310;DHT22;27057;51.438;-0.010;2023-06-24T11:15:05;27.10;99.90
41310;DHT22;27057;51.438;-0.010;2023-06-24T11:17:34;26.70;99.90
41310;DHT22;27057;51.438;-0.010;2023-06-24T11:20:07;26.30;99.90
41310;DHT22;27057;51.438;-0.010;2023-06-24T11:22:34;27.10;99.90
41310;DHT22;27057;51.438;-0.010;2023-06-24T11:25:02;26.80;99.90
41310;DHT22;27057;51.438;-0.010;2023-06-24T11:27:31;26.90;99.90
41310;DHT22;27057;51.438;-0.010;2023-06-24T11:30:00;27.00;99.90
41310;DHT22;27057;51.438;-0.010;2023-06-24T11:32:37;27.10;99.90
41310;DHT22;27057;51.438;-0.010;2023-06-24T11:35:08;27.10;99.90
41310;DHT22;27057;51.438;-0.010;2023-06-24T11:37:37;27.30;99.90
41310;DHT22;27057;51.438;-0.010;2023-06-24T11:40:07;27.60;99.90
41310;DHT22;27057;51.438;-0.010;2023-06-24T11:42:39;27.70;99.90
41310;DHT22;27057;51.438;-0.010;2023-06-24T11:45:09;27.60;99.90
41310;DHT22;27057;51.438;-0.010;2023-06-24T11:47:40;27.70;99.90
41310;DHT22;27057;51.438;-0.010;2023-06-24T11:50:08;27.60;99.90
41310;DHT22;27057;51.438;-0.010;2023-06-24T11:55:17;27.40;99.90
41310;DHT22;27057;51.438;-0.010;2023-06-24T11:57:56;29.00;99.90
41310;DHT22;27057;51.438;-0.010;2023-06-24T12:00:37;27.50;99.90
41310;DHT22;27057;51.438;-0.010;2023-06-24T12:03:06;27.70;99.90
41310;DHT22;27057;51.438;-0.010;2023-06-24T12:05:38;28.10;99.90
41310;DHT22;27057;51.438;-0.010;2023-06-24T12:08:12;28.70;99.90
41310;DHT22;27057;51.438;-0.010;2023-06-24T12:10:41;28.90;99.90
41310;DHT22;27057;51.438;-0.010;2023-06-24T12:13:10;28.80;99.90
41310;DHT22;27057;51.438;-0.010;2023-06-24T12:15:37;28.60;99.90
41310;DHT22;27057;51.438;-0.010;2023-06-24T12:18:05;28.30;99.90
41310;DHT22;27057;51.438;-0.010;2023-06-24T12:20:33;28.00;99.90
41310;DHT22;27057;51.438;-0.010;2023-06-24T12:23:05;28.30;99.90
41310;DHT22;27057;51.438;-0.010;2023-06-24T12:25:33;27.60;99.90
41310;DHT22;27057;51.438;-0.010;2023-06-24T12:28:00;27.60;99.90
41310;DHT22;27057;51.438;-0.010;2023-06-24T12:30:28;27.50;99.90
41310;DHT22;27057;51.438;-0.010;2023-06-24T12:32:55;27.50;99.90
41310;DHT22;27057;51.438;-0.010;2023-06-24T12:35:23;27.30;99.90
41310;DHT22;27057;51.438;-0.010;2023-06-24T12:37:54;27.70;99.90
41310;DHT22;27057;51.438;-0.010;2023-06-24T12:40:21;27.90;99.90
41310;DHT22;27057;51.438;-0.010;2023-06-24T12:42:49;28.30;99.90
41310;DHT22;27057;51.438;-0.010;2023-06-24T12:45:17;28.90;99.90
41310;DHT22;27057;51.438;-0.010;2023-06-24T12:47:44;29.50;99.90
41310;DHT22;27057;51.438;-0.010;2023-06-24T12:50:12;29.70;99.90
41310;DHT22;27057;51.438;-0.010;2023-06-24T12:52:40;29.80;99.90
41310;DHT22;27057;51.438;-0.010;2023-06-24T12:55:07;29.60;99.90
41310;DHT22;27057;51.438;-0.010;2023-06-24T12:57:35;29.60;99.90
41310;DHT22;27057;51.438;-0.010;2023-06-24T13:00:04;29.30;99.90
41310;DHT22;27057;51.438;-0.010;2023-06-24T13:02:35;29.20;99.90
41310;DHT22;27057;51.438;-0.010;2023-06-24T13:05:03;29.20;99.90
41310;DHT22;27057;51.438;-0.010;2023-06-24T13:07:31;29.00;99.60
41310;DHT22;27057;51.438;-0.010;2023-06-24T13:10:00;28.80;99.80
41310;DHT22;27057;51.438;-0.010;2023-06-24T13:12:28;28.90;99.90
41310;DHT22;27057;51.438;-0.010;2023-06-24T13:14:56;28.60;99.80
41310;DHT22;27057;51.438;-0.010;2023-06-24T13:17:23;28.50;99.90
41310;DHT22;27057;51.438;-0.010;2023-06-24T13:19:52;28.50;99.90
41310;DHT22;27057;51.438;-0.010;2023-06-24T13:22:19;28.40;99.90
41310;DHT22;27057;51.438;-0.010;2023-06-24T13:24:47;28.40;99.90
41310;DHT22;27057;51.438;-0.010;2023-06-24T13:27:15;28.40;99.90
41310;DHT22;27057;51.438;-0.010;2023-06-24T13:29:43;28.90;99.90
41310;DHT22;27057;51.438;-0.010;2023-06-24T13:32:11;28.30;99.90
41310;DHT22;27057;51.438;-0.010;2023-06-24T13:34:38;28.40;99.90
41310;DHT22;27057;51.438;-0.010;2023-06-24T13:37:06;28.30;99.40
41310;DHT22;27057;51.438;-0.010;2023-06-24T13:39:33;28.20;99.40
41310;DHT22;27057;51.438;-0.010;2023-06-24T13:42:00;28.10;99.80
41310;DHT22;27057;51.438;-0.010;2023-06-24T13:44:28;28.10;99.90
41310;DHT22;27057;51.438;-0.010;2023-06-24T13:46:55;28.10;99.90
41310;DHT22;27057;51.438;-0.010;2023-06-24T13:49:23;28.10;99.90
41310;DHT22;27057;51.438;-0.010;2023-06-24T13:51:50;28.10;99.90
41310;DHT22;27057;51.438;-0.010;2023-06-24T13:54:17;28.20;99.90
41310;DHT22;27057;51.438;-0.010;2023-06-24T13:56:45;28.20;99.90
41310;DHT22;27057;51.438;-0.010;2023-06-24T13:59:12;28.30;99.90
41310;DHT22;27057;51.438;-0.010;2023-06-24T14:01:40;28.40;99.90
41310;DHT22;27057;51.438;-0.010;2023-06-24T14:04:07;28.40;99.90
41310;DHT22;27057;51.438;-0.010;2023-06-24T14:06:35;28.30;99.90
41310;DHT22;27057;51.438;-0.010;2023-06-24T14:09:02;28.30;99.90
41310;DHT22;27057;51.438;-0.010;2023-06-24T14:11:30;28.20;99.90
41310;DHT22;27057;51.438;-0.010;2023-06-24T14:13:57;28.10;99.90
41310;DHT22;27057;51.438;-0.010;2023-06-24T14:16:25;28.00;99.90
41310;DHT22;27057;51.438;-0.010;2023-06-24T14:18:52;28.00;99.90
41310;DHT22;27057;51.438;-0.010;2023-06-24T14:21:20;28.00;99.90
41310;DHT22;27057;51.438;-0.010;2023-06-24T14:23:48;28.00;99.90
41310;DHT22;27057;51.438;-0.010;2023-06-24T14:26:16;28.00;99.90
41310;DHT22;27057;51.438;-0.010;2023-06-24T14:28:43;27.90;99.90
41310;DHT22;27057;51.438;-0.010;2023-06-24T14:31:11;27.80;99.90
41310;DHT22;27057;51.438;-0.010;2023-06-24T14:33:38;27.70;99.90
41310;DHT22;27057;51.438;-0.010;2023-06-24T14:36:06;27.70;99.90
41310;DHT22;27057;51.438;-0.010;2023-06-24T14:38:33;27.70;99.90
41310;DHT22;27057;51.438;-0.010;2023-06-24T14:41:00;27.80;99.90
41310;DHT22;27057;51.438;-0.010;2023-06-24T14:43:28;27.80;99.90
41310;DHT22;27057;51.438;-0.010;2023-06-24T14:45:55;27.70;99.90
41310;DHT22;27057;51.438;-0.010;2023-06-24T14:48:24;27.70;99.90
41310;DHT22;27057;51.438;-0.010;2023-06-24T14:50:52;27.80;99.90
41310;DHT22;27057;51.438;-0.010;2023-06-24T14:53:19;27.90;99.90
41310;DHT22;27057;51.438;-0.010;2023-06-24T14:55:47;28.00;99.90
41310;DHT22;27057;51.438;-0.010;2023-06-24T14:58:14;28.20;99.90
41310;DHT22;27057;51.438;-0.010;2023-06-24T15:00:45;28.30;99.90
41310;DHT22;27057;51.438;-0.010;2023-06-24T15:03:12;28.40;99.90
41310;DHT22;27057;51.438;-0.010;2023-06-24T15:05:40;28.80;99.90
41310;DHT22;27057;51.438;-0.010;2023-06-24T15:08:08;28.90;99.90
41310;DHT22;27057;51.438;-0.010;2023-06-24T15:10:35;29.10;99.90
41310;DHT22;27057;51.438;-0.010;2023-06-24T15:13:03;29.10;99.90
41310;DHT22;27057;51.438;-0.010;2023-06-24T15:15:30;29.10;99.90
41310;DHT22;27057;51.438;-0.010;2023-06-24T15:17:58;29.20;99.90
41310;DHT22;27057;51.438;-0.010;2023-06-24T15:20:27;29.30;99.90
41310;DHT22;27057;51.438;-0.010;2023-06-24T15:22:54;29.30;99.90
41310;DHT22;27057;51.438;-0.010;2023-06-24T15:25:22;29.30;99.90
41310;DHT22;27057;51.438;-0.010;2023-06-24T15:27:49;29.10;99.90
41310;DHT22;27057;51.438;-0.010;2023-06-24T15:30:16;29.30;99.80
41310;DHT22;27057;51.438;-0.010;2023-06-24T15:32:44;29.50;99.90
41310;DHT22;27057;51.438;-0.010;2023-06-24T15:35:13;29.60;99.90
41310;DHT22;27057;51.438;-0.010;2023-06-24T15:37:40;29.90;99.90
41310;DHT22;27057;51.438;-0.010;2023-06-24T15:40:08;30.00;99.50
41310;DHT22;27057;51.438;-0.010;2023-06-24T15:42:36;30.00;99.50
41310;DHT22;27057;51.438;-0.010;2023-06-24T15:45:05;30.10;99.30
41310;DHT22;27057;51.438;-0.010;2023-06-24T15:47:32;29.60;98.90
41310;DHT22;27057;51.438;-0.010;2023-06-24T15:50:02;30.40;99.40